Time;durP1;ratioP1;P1;durP2;ratioP2;P2;SDS_P1;SDS_P2;PMS_P1;PMS_P2;Temp;Humidity;BMP_temperature;BMP_pressure;BME280_temperature;BME280_humidity;BME280_pressure;Samples;Min_cycle;Max_cycle;Signal;HPM_P1;HPM_P2
2021/04/30 00:01:13;;;;;;;27.90;20.67;;;;;;;12.77;73.16;98024.45;124752;1101;64422;-80
2021/04/30 00:03:39;;;;;;;27.23;20.90;;;;;;;12.72;73.21;98032.92;124735;1101;64361;-79
2021/04/30 00:06:06;;;;;;;24.63;19.60;;;;;;;12.68;73.62;98032.34;124740;1101;64465;-80
2021/04/30 00:08:33;;;;;;;24.37;18.70;;;;;;;12.68;73.80;98044.87;124724;1095;64307;-81
2021/04/30 00:11:01;;;;;;;21.23;17.17;;;;;;;12.66;74.78;98052.17;124831;1097;64333;-82
2021/04/30 00:13:27;;;;;;;21.47;18.07;;;;;;;12.63;74.52;98052.45;124759;1101;64323;-78
2021/04/30 00:15:54;;;;;;;25.30;20.17;;;;;;;12.61;74.67;98060.63;124743;1101;64265;-79
2021/04/30 00:18:22;;;;;;;24.77;19.63;;;;;;;12.58;75.32;98060.05;124769;1096;64339;-81
2021/04/30 00:20:56;;;;;;;20.05;15.90;;;;;;;12.54;76.01;98056.81;124759;1101;64323;-79
2021/04/30 00:23:26;;;;;;;17.80;14.50;;;;;;;12.53;76.29;98071.14;124758;1096;64250;-80
2021/04/30 00:25:54;;;;;;;15.60;11.85;;;;;;;12.52;77.15;98080.99;124800;1101;64335;-79
2021/04/30 00:28:23;;;;;;;11.67;10.47;;;;;;;12.45;77.58;98074.53;124729;1101;64419;-80
2021/04/30 00:30:51;;;;;;;11.23;8.63;;;;;;;12.39;77.54;98074.22;124783;1101;64412;-80
2021/04/30 00:33:19;;;;;;;9.10;6.97;;;;;;;12.35;77.71;98079.00;124824;1095;64339;-82
2021/04/30 00:35:46;;;;;;;10.93;7.13;;;;;;;12.30;77.62;98071.38;124886;1096;64312;-81
2021/04/30 00:38:13;;;;;;;7.70;6.87;;;;;;;12.25;78.05;98070.95;124775;1101;64358;-81
2021/04/30 00:40:40;;;;;;;7.33;5.67;;;;;;;12.22;78.24;98073.05;124916;1096;64330;-81
2021/04/30 00:43:09;;;;;;;7.27;5.97;;;;;;;12.20;78.07;98067.84;124775;1101;64476;-82
2021/04/30 00:45:36;;;;;;;9.40;6.20;;;;;;;12.20;78.70;98065.16;124853;1101;64419;-80
2021/04/30 00:48:04;;;;;;;7.23;5.83;;;;;;;12.18;78.59;98058.27;124867;1101;64336;-80
2021/04/30 00:50:32;;;;;;;7.53;5.50;;;;;;;12.18;78.54;98063.61;124747;1101;64351;-82
2021/04/30 00:52:59;;;;;;;6.50;5.40;;;;;;;12.18;78.87;98060.94;124814;1097;64351;-83
2021/04/30 00:55:26;;;;;;;7.50;6.43;;;;;;;12.17;78.78;98051.25;124721;1096;64431;-79
2021/04/30 00:57:59;;;;;;;9.00;7.20;;;;;;;12.17;78.67;98043.23;124760;1097;64336;-80
2021/04/30 01:00:28;;;;;;;10.73;8.27;;;;;;;12.19;78.55;98035.91;124817;1096;64377;-80
2021/04/30 01:02:55;;;;;;;11.37;8.23;;;;;;;12.24;78.78;98021.19;124796;1096;64250;-80
2021/04/30 01:05:23;;;;;;;14.03;9.37;;;;;;;12.27;78.50;98015.56;124745;1095;64333;-80
2021/04/30 01:07:51;;;;;;;9.33;7.87;;;;;;;12.26;78.78;98029.88;124724;1101;64473;-83
2021/04/30 01:10:20;;;;;;;15.80;14.10;;;;;;;12.22;78.71;98046.34;124775;1095;64317;-82
2021/04/30 01:12:47;;;;;;;14.03;11.17;;;;;;;12.18;79.03;98067.12;124863;1095;64347;-81
2021/04/30 01:15:16;;;;;;;12.77;9.80;;;;;;;12.16;79.12;98068.23;124909;1095;64392;-80
2021/04/30 01:17:43;;;;;;;9.27;8.17;;;;;;;12.16;78.90;98068.23;124878;1101;64339;-80
2021/04/30 01:20:12;;;;;;;10.83;9.17;;;;;;;12.19;79.27;98067.95;124821;1097;64361;-81
2021/04/30 01:22:43;;;;;;;11.05;9.85;;;;;;;12.22;79.22;98065.88;124827;1096;64310;-80
2021/04/30 01:25:25;;;;;;;10.67;9.33;;;;;;;12.25;79.15;98056.75;124833;1101;64329;-80
2021/04/30 01:27:53;;;;;;;13.90;10.80;;;;;;;12.30;79.10;98068.72;124850;1101;64361;-81
2021/04/30 01:30:26;;;;;;;11.63;10.13;;;;;;;12.33;79.09;98070.27;124800;1101;64445;-80
2021/04/30 01:32:54;;;;;;;10.27;9.17;;;;;;;12.32;78.99;98073.06;124853;1096;64323;-80
2021/04/30 01:35:38;;;;;;;14.10;10.30;;;;;;;12.28;78.95;98073.34;124805;1101;64368;-79
2021/04/30 01:38:05;;;;;;;11.10;9.70;;;;;;;12.27;78.95;98081.51;124758;1101;64328;-79
2021/04/30 01:40:34;;;;;;;12.10;9.03;;;;;;;12.23;79.12;98085.42;124772;1101;64336;-78
2021/04/30 01:43:03;;;;;;;10.50;8.37;;;;;;;12.26;79.34;98082.47;124769;1096;64487;-80
2021/04/30 01:46:04;;;;;;;11.97;8.73;;;;;;;12.26;79.58;98079.80;124859;1097;64310;-79
2021/04/30 01:48:33;;;;;;;12.63;9.80;;;;;;;12.23;79.61;98080.91;124894;1101;64795;-79
2021/04/30 01:51:02;;;;;;;14.15;11.60;;;;;;;12.21;79.67;98090.05;124862;1101;64331;-80
2021/04/30 01:53:31;;;;;;;16.03;13.57;;;;;;;12.14;79.75;98087.09;124774;1101;64249;-80
2021/04/30 01:55:59;;;;;;;;;;;;;;;12.08;79.96;98088.47;124867;1101;64387;-81
2021/04/30 01:58:26;;;;;;;14.57;13.07;;;;;;;12.06;80.03;98086.91;124842;1101;64335;-80
2021/04/30 02:00:55;;;;;;;15.03;12.67;;;;;;;12.04;80.15;98079.02;124731;1096;64386;-81
2021/04/30 02:03:23;;;;;;;14.90;11.80;;;;;;;12.06;80.20;98079.74;124841;1096;64320;-80
2021/04/30 02:05:51;;;;;;;12.83;11.10;;;;;;;12.08;80.25;98074.25;124783;1101;64317;-80
2021/04/30 02:08:18;;;;;;;14.40;10.73;;;;;;;12.06;80.25;98085.08;124738;1101;64477;-80
2021/04/30 02:10:47;;;;;;;13.00;10.17;;;;;;;12.09;80.47;98078.63;124747;1101;64454;-81
2021/04/30 02:13:16;;;;;;;13.77;11.00;;;;;;;12.11;80.53;98078.47;124794;1097;64354;-79
2021/04/30 02:15:45;;;;;;;15.03;13.43;;;;;;;12.15;80.25;98086.09;124909;1101;64370;-79
2021/04/30 02:18:13;;;;;;;14.63;12.93;;;;;;;12.15;80.52;98079.91;124849;1101;64365;-79
2021/04/30 02:20:40;;;;;;;17.37;14.90;;;;;;;12.14;80.60;98079.07;124830;1101;64426;-80
2021/04/30 02:23:07;;;;;;;15.33;13.23;;;;;;;12.17;80.50;98085.97;124787;1101;64495;-80
2021/04/30 02:25:34;;;;;;;15.60;12.80;;;;;;;12.17;80.58;98085.97;124720;1101;64352;-80
2021/04/30 02:28:02;;;;;;;17.17;14.07;;;;;;;12.14;80.62;98091.55;124767;1101;64364;-80
2021/04/30 02:30:33;;;;;;;15.80;13.07;;;;;;;12.11;80.50;98100.68;124795;1096;64373;-80
2021/04/30 02:33:01;;;;;;;16.10;13.33;;;;;;;12.10;80.77;98095.49;124761;1101;64471;-80
2021/04/30 02:35:33;;;;;;;18.20;14.43;;;;;;;12.14;80.94;98099.56;124818;1101;64515;-80
2021/04/30 02:38:01;;;;;;;17.13;13.90;;;;;;;12.15;80.95;98102.12;124817;1096;64320;-80
2021/04/30 02:40:31;;;;;;;13.55;12.15;;;;;;;12.20;81.04;98097.22;124757;1101;64328;-80
2021/04/30 02:43:08;;;;;;;18.97;13.50;;;;;;;12.22;81.02;98092.59;124815;1101;64399;-79
2021/04/30 02:45:35;;;;;;;15.83;12.53;;;;;;;12.22;80.94;98107.78;124713;1096;64469;-80
2021/04/30 02:48:09;;;;;;;16.63;13.23;;;;;;;12.19;80.85;98102.69;124755;1101;64751;-82
2021/04/30 02:50:35;;;;;;;15.20;13.50;;;;;;;12.19;81.01;98110.70;124788;1101;64342;-80
2021/04/30 02:53:02;;;;;;;17.53;13.47;;;;;;;12.20;81.00;98113.25;124754;1096;64365;-80
2021/04/30 02:55:29;;;;;;;14.73;13.10;;;;;;;12.21;81.15;98111.41;124773;1096;64345;-80
2021/04/30 02:58:02;;;;;;;16.13;14.47;;;;;;;12.18;80.94;98112.53;124771;1101;64406;-80
2021/04/30 03:00:30;;;;;;;15.85;14.15;;;;;;;12.16;81.07;98110.97;124721;1100;64502;-80
2021/04/30 03:02:58;;;;;;;16.17;13.93;;;;;;;12.13;81.14;98119.26;124899;1096;64315;-80
2021/04/30 03:05:25;;;;;;;15.30;13.70;;;;;;;12.12;81.33;98123.76;124810;1097;64332;-80
2021/04/30 03:07:53;;;;;;;17.63;14.77;;;;;;;12.14;81.37;98124.48;124707;1101;64339;-80
2021/04/30 03:10:20;;;;;;;15.37;13.70;;;;;;;12.16;81.30;98129.67;124716;1101;64447;-79
2021/04/30 03:12:47;;;;;;;15.30;13.55;;;;;;;12.19;81.40;98121.38;124745;1096;64719;-81
2021/04/30 03:15:15;;;;;;;13.97;12.57;;;;;;;12.25;81.47;98120.86;124759;1095;64275;-81
2021/04/30 03:17:43;;;;;;;14.17;12.57;;;;;;;12.26;81.23;98126.05;124847;1094;64339;-79
2021/04/30 03:20:12;;;;;;;16.53;13.70;;;;;;;12.27;81.33;98126.92;124821;1095;64333;-81
2021/04/30 03:22:39;;;;;;;15.47;12.83;;;;;;;12.21;81.27;98117.59;124808;1101;64409;-84
2021/04/30 03:25:07;;;;;;;15.97;13.80;;;;;;;12.23;81.40;98126.33;125032;1097;64282;-82
2021/04/30 03:27:34;;;;;;;16.13;13.30;;;;;;;12.23;81.36;98125.48;124921;1101;64312;-82
2021/04/30 03:30:01;;;;;;;17.90;14.13;;;;;;;12.21;81.39;98127.44;124807;1097;64334;-80
2021/04/30 03:32:27;;;;;;;14.17;12.67;;;;;;;12.20;81.42;98131.95;125242;1101;64396;-80
2021/04/30 03:34:55;;;;;;;15.20;13.17;;;;;;;12.22;81.42;98140.67;124825;1096;64342;-81
2021/04/30 03:37:22;;;;;;;14.33;12.13;;;;;;;12.26;81.51;98146.59;124776;1096;64339;-80
2021/04/30 03:39:50;;;;;;;13.13;11.73;;;;;;;12.27;81.47;98146.47;124828;1096;64323;-81
2021/04/30 03:42:17;;;;;;;14.30;12.67;;;;;;;12.31;81.47;98157.72;124843;1101;64716;-81
2021/04/30 03:44:44;;;;;;;16.60;14.67;;;;;;;12.31;81.45;98165.73;124837;1096;64410;-81
2021/04/30 03:47:11;;;;;;;15.97;14.37;;;;;;;12.28;81.49;98166.00;124982;1101;64355;-80
2021/04/30 03:49:39;;;;;;;17.00;15.30;;;;;;;12.25;81.50;98172.46;124785;1096;64573;-80
2021/04/30 03:52:05;;;;;;;17.73;15.43;;;;;;;;;;124827;1101;64332;-80
2021/04/30 03:54:32;;;;;;;18.23;16.30;;;;;;;12.23;81.47;98176.25;124857;1101;64344;-80
2021/04/30 03:56:59;;;;;;;20.97;17.83;;;;;;;12.21;81.48;98173.69;124825;1097;64262;-82
2021/04/30 03:59:26;;;;;;;25.03;19.83;;;;;;;12.20;81.49;98181.86;124861;1096;64480;-83
2021/04/30 04:01:53;;;;;;;21.03;18.73;;;;;;;12.17;81.57;98190.14;124892;1096;64349;-83
2021/04/30 04:04:19;;;;;;;22.63;20.17;;;;;;;12.10;81.66;98184.47;124867;1097;64336;-80
2021/04/30 04:06:46;;;;;;;24.40;21.80;;;;;;;12.10;81.64;98191.64;124942;1101;64427;-80
2021/04/30 04:09:13;;;;;;;19.07;14.57;;;;;;;12.08;81.70;98189.96;124789;1101;64371;-81
2021/04/30 04:11:41;;;;;;;13.07;11.73;;;;;;;12.11;81.76;98187.98;124776;1101;64275;-81
2021/04/30 04:14:07;;;;;;;13.47;11.17;;;;;;;12.10;81.82;98192.48;124769;1096;64467;-80
2021/04/30 04:16:34;;;;;;;12.60;10.60;;;;;;;12.13;81.80;98205.56;124848;1101;64422;-81
2021/04/30 04:19:01;;;;;;;10.93;9.77;;;;;;;12.16;81.88;98204.45;124842;1101;64329;-81
2021/04/30 04:21:28;;;;;;;12.23;9.93;;;;;;;12.19;81.87;98212.20;124742;1096;64339;-80
2021/04/30 04:23:55;;;;;;;13.07;9.70;;;;;;;12.17;81.84;98209.68;124770;1101;64451;-81
2021/04/30 04:26:21;;;;;;;10.60;9.50;;;;;;;12.17;81.77;98209.68;124770;1096;64355;-80
2021/04/30 04:28:48;;;;;;;10.33;9.27;;;;;;;12.20;81.78;98214.75;124810;1101;64342;-80
2021/04/30 04:31:15;;;;;;;11.37;9.47;;;;;;;12.23;81.75;98213.64;124881;1101;64352;-80
2021/04/30 04:33:42;;;;;;;12.07;9.67;;;;;;;12.22;81.78;98226.16;124825;1101;64269;-80
2021/04/30 04:36:08;;;;;;;11.87;10.67;;;;;;;12.26;81.71;98232.91;124796;1101;64379;-79
2021/04/30 04:38:35;;;;;;;11.67;10.47;;;;;;;12.33;81.68;98237.75;124834;1101;64416;-80
2021/04/30 04:41:02;;;;;;;14.47;11.23;;;;;;;12.36;81.73;98238.33;124881;1097;64359;-80
2021/04/30 04:43:28;;;;;;;10.67;9.00;;;;;;;12.41;81.62;98229.91;124867;1101;64310;-80
2021/04/30 04:45:55;;;;;;;10.53;9.43;;;;;;;12.48;81.58;98239.94;124862;1096;64332;-80
2021/04/30 04:48:22;;;;;;;13.25;10.05;;;;;;;12.50;81.59;98243.30;124831;1101;64393;-81
2021/04/30 04:50:48;;;;;;;11.13;9.77;;;;;;;12.50;81.38;98242.47;124838;1101;64467;-81
2021/04/30 04:53:15;;;;;;;11.43;9.87;;;;;;;12.50;81.46;98245.98;124842;1101;64406;-80
2021/04/30 04:55:42;;;;;;;11.55;10.10;;;;;;;12.51;81.55;98258.38;124833;1101;64489;-80
2021/04/30 04:58:08;;;;;;;13.50;9.57;;;;;;;12.50;81.56;98251.32;124839;1096;64336;-82
2021/04/30 05:00:35;;;;;;;13.23;10.33;;;;;;;12.50;81.49;98253.16;124779;1101;64460;-80
2021/04/30 05:03:02;;;;;;;15.93;13.40;;;;;;;12.49;81.30;98254.14;124870;1096;64352;-80
2021/04/30 05:05:29;;;;;;;16.43;14.80;;;;;;;12.46;81.30;98259.76;124801;1101;64300;-80
2021/04/30 05:07:55;;;;;;;16.20;13.87;;;;;;;12.40;81.00;98261.14;124851;1101;64329;-80
2021/04/30 05:10:23;;;;;;;11.30;8.77;;;;;;;12.34;80.04;98272.33;124838;1097;64855;-79
2021/04/30 05:12:49;;;;;;;11.17;10.00;;;;;;;12.33;80.25;98270.66;124781;1101;64381;-81
2021/04/30 05:15:16;;;;;;;16.33;12.70;;;;;;;12.39;80.39;98269.28;124845;1101;64326;-81
2021/04/30 05:17:43;;;;;;;10.87;9.80;;;;;;;12.44;80.10;98269.73;124883;1101;64406;-80
2021/04/30 05:20:12;;;;;;;10.20;8.40;;;;;;;12.55;79.68;98271.47;124850;1101;64339;-80
2021/04/30 05:22:42;;;;;;;9.73;7.40;;;;;;;12.59;79.41;98276.42;124809;1101;64251;-80
2021/04/30 05:25:10;;;;;;;9.23;8.07;;;;;;;12.67;79.17;98273.93;124891;1101;64300;-79
2021/04/30 05:27:41;;;;;;;9.20;8.13;;;;;;;12.73;79.02;98270.71;124813;1101;64489;-81
2021/04/30 05:30:09;;;;;;;9.03;8.13;;;;;;;12.75;78.80;98283.95;124899;1096;64283;-81
2021/04/30 05:32:36;;;;;;;12.07;9.10;;;;;;;12.73;78.62;98280.56;124904;1101;64362;-80
2021/04/30 05:35:04;;;;;;;10.35;8.50;;;;;;;12.73;78.73;98286.75;124792;1101;64309;-84
2021/04/30 05:37:32;;;;;;;9.60;8.63;;;;;;;12.70;78.74;98287.02;124796;1096;64492;-81
2021/04/30 05:39:59;;;;;;;13.47;9.43;;;;;;;12.69;78.58;98281.80;124829;1096;64272;-80
2021/04/30 05:42:27;;;;;;;13.23;12.03;;;;;;;12.68;78.31;98280.12;124832;1096;64333;-80
2021/04/30 05:44:54;;;;;;;14.97;11.57;;;;;;;12.70;78.28;98279.00;124864;1101;64336;-80
2021/04/30 05:47:22;;;;;;;14.53;13.03;;;;;;;12.70;77.60;98284.35;124840;1101;64330;-81
2021/04/30 05:49:50;;;;;;;14.50;13.00;;;;;;;12.71;77.63;98294.05;124896;1101;64375;-79
2021/04/30 05:52:17;;;;;;;16.90;14.47;;;;;;;12.79;77.67;98298.73;124746;1096;64270;-79
2021/04/30 05:54:44;;;;;;;14.47;12.30;;;;;;;12.90;77.46;98298.67;124751;1101;64333;-81
2021/04/30 05:57:11;;;;;;;12.70;11.40;;;;;;;13.04;77.03;98308.14;124803;1101;64240;-80
2021/04/30 05:59:38;;;;;;;14.97;12.20;;;;;;;13.23;77.16;98307.36;124736;1096;64483;-80
2021/04/30 06:02:04;;;;;;;12.73;11.43;;;;;;;13.45;76.64;98300.11;124746;1095;64366;-81
2021/04/30 06:04:33;;;;;;;14.77;12.53;;;;;;;13.66;76.44;98298.17;124854;1097;64425;-79
2021/04/30 06:06:59;;;;;;;15.30;12.00;;;;;;;13.96;76.13;98305.25;124842;1095;64365;-82
2021/04/30 06:09:26;;;;;;;12.03;10.67;;;;;;;14.20;75.59;98312.02;124874;1097;64355;-80
2021/04/30 06:11:53;;;;;;;11.23;9.90;;;;;;;14.40;74.47;98308.33;124973;1097;64397;-81
2021/04/30 06:14:25;;;;;;;11.33;9.37;;;;;;;14.57;74.20;98311.28;124821;1096;64358;-82
2021/04/30 06:16:52;;;;;;;11.60;9.87;;;;;;;14.76;73.65;98321.95;124988;1101;64499;-81
2021/04/30 06:19:19;;;;;;;10.47;9.47;;;;;;;14.87;73.05;98316.39;124878;1101;64332;-86
2021/04/30 06:21:45;;;;;;;11.90;10.20;;;;;;;14.89;72.84;98309.05;124793;1102;64332;-80
2021/04/30 06:24:12;;;;;;;11.10;9.90;;;;;;;15.01;72.65;98316.91;124767;1101;64419;-82
2021/04/30 06:26:39;;;;;;;12.97;10.57;;;;;;;15.21;70.94;98312.31;124786;1095;64251;-80
2021/04/30 06:29:07;;;;;;;11.80;9.40;;;;;;;15.08;70.90;98326.07;124885;1096;64272;-81
2021/04/30 06:31:36;;;;;;;10.93;9.57;;;;;;;15.00;70.86;98328.65;124866;1101;64278;-80
2021/04/30 06:34:05;;;;;;;10.53;8.83;;;;;;;14.97;70.12;98334.31;124894;1096;64358;-81
2021/04/30 06:36:33;;;;;;;11.90;10.57;;;;;;;15.05;69.31;98332.58;124931;1101;64327;-83
2021/04/30 06:39:00;;;;;;;10.77;9.67;;;;;;;15.59;69.20;98327.38;124860;1097;64414;-80
2021/04/30 06:41:28;;;;;;;10.40;9.40;;;;;;;16.06;65.68;98319.16;124856;1101;64432;-81
2021/04/30 06:43:55;;;;;;;10.63;9.60;;;;;;;16.17;66.69;98318.08;124842;1101;64424;-80
2021/04/30 06:46:23;;;;;;;11.43;10.23;;;;;;;16.08;66.62;98324.36;124781;1101;64416;-80
2021/04/30 06:48:51;;;;;;;18.37;11.00;;;;;;;16.10;67.15;98325.91;124793;1096;64364;-80
2021/04/30 06:51:17;;;;;;;12.53;11.33;;;;;;;16.13;65.77;98316.69;124846;1101;64272;-81
2021/04/30 06:53:44;;;;;;;12.17;10.97;;;;;;;16.28;64.42;98333.13;124865;1096;64320;-81
2021/04/30 06:56:11;;;;;;;10.97;9.73;;;;;;;16.12;63.82;98315.01;124802;1101;64309;-80
2021/04/30 06:58:38;;;;;;;11.67;10.47;;;;;;;15.93;64.07;98314.16;124828;1101;64336;-80
2021/04/30 07:01:06;;;;;;;11.95;10.85;;;;;;;15.92;65.00;98309.77;124858;1097;64464;-80
2021/04/30 07:03:33;;;;;;;12.00;10.87;;;;;;;15.97;64.16;98302.09;124814;1096;64375;-81
2021/04/30 07:06:00;;;;;;;10.13;9.13;;;;;;;16.11;64.46;98313.30;124901;1094;64329;-81
2021/04/30 07:08:27;;;;;;;10.57;9.40;;;;;;;16.23;63.90;98309.38;124850;1096;64275;-80
2021/04/30 07:10:54;;;;;;;10.37;9.37;;;;;;;16.37;63.74;98310.66;124835;1097;64355;-80
2021/04/30 07:13:20;;;;;;;11.53;9.73;;;;;;;16.56;63.92;98315.87;124846;1096;64250;-80
2021/04/30 07:15:47;;;;;;;10.10;9.10;;;;;;;16.75;62.84;98308.59;124865;1097;64406;-79
2021/04/30 07:18:14;;;;;;;10.43;9.43;;;;;;;16.89;62.82;98316.09;124858;1101;64732;-81
2021/04/30 07:20:41;;;;;;;8.55;7.75;;;;;;;16.94;62.11;98321.01;124808;1101;64315;-80
2021/04/30 07:23:09;;;;;;;7.90;7.10;;;;;;;16.91;61.54;98321.33;124860;1097;64776;-81
2021/04/30 07:25:36;;;;;;;9.77;7.97;;;;;;;16.82;61.67;98334.71;124738;1101;64303;-81
2021/04/30 07:28:02;;;;;;;10.70;7.90;;;;;;;16.75;60.95;98330.95;124724;1101;64491;-80
2021/04/30 07:30:29;;;;;;;7.97;6.80;;;;;;;16.61;60.86;98331.52;124816;1101;64641;-79
2021/04/30 07:32:56;;;;;;;7.20;6.50;;;;;;;16.42;58.64;98328.02;124786;1101;64457;-79
2021/04/30 07:35:23;;;;;;;7.20;6.50;;;;;;;16.31;57.79;98327.43;124764;1101;64345;-81
2021/04/30 07:37:49;;;;;;;6.80;6.20;;;;;;;16.39;59.53;98325.64;124812;1101;64357;-81
2021/04/30 07:40:16;;;;;;;7.77;7.07;;;;;;;16.52;58.41;98327.93;124805;1101;64432;-80
2021/04/30 07:42:43;;;;;;;7.35;6.65;;;;;;;16.47;58.50;98335.63;124849;1101;64326;-80
2021/04/30 07:45:11;;;;;;;7.53;6.80;;;;;;;16.31;59.26;98338.19;124798;1101;64250;-80
2021/04/30 07:47:37;;;;;;;8.20;7.33;;;;;;;16.12;58.64;98344.58;124831;1097;64352;-82
2021/04/30 07:50:06;;;;;;;27.13;9.50;;;;;;;16.03;58.33;98343.63;124827;1097;64303;-80
2021/04/30 07:52:32;;;;;;;7.97;7.27;;;;;;;15.93;59.21;98343.73;124868;1101;64334;-80
2021/04/30 07:55:01;;;;;;;7.93;6.90;;;;;;;16.12;59.15;98344.58;124833;1101;64327;-80
2021/04/30 07:57:29;;;;;;;8.20;7.33;;;;;;;16.17;58.59;98347.65;124816;1096;64336;-80
2021/04/30 07:59:56;;;;;;;8.37;7.50;;;;;;;15.92;58.55;98350.08;124870;1101;64346;-80
2021/04/30 08:02:23;;;;;;;9.30;7.95;;;;;;;15.94;59.06;98349.94;124882;1096;64332;-82
2021/04/30 08:04:50;;;;;;;8.50;7.70;;;;;;;16.13;59.96;98347.09;124850;1102;64331;-81
2021/04/30 08:07:17;;;;;;;9.67;7.77;;;;;;;16.52;60.28;98343.23;124864;1096;64399;-81
2021/04/30 08:09:44;;;;;;;9.47;8.57;;;;;;;16.77;60.13;98341.55;124668;1096;64387;-82
2021/04/30 08:12:11;;;;;;;10.07;9.10;;;;;;;16.87;59.57;98342.32;124859;1095;64275;-81
2021/04/30 08:14:38;;;;;;;9.87;8.87;;;;;;;16.90;59.71;98350.07;124852;1095;64360;-82
2021/04/30 08:17:05;;;;;;;11.00;9.55;;;;;;;16.92;59.84;98342.69;124905;1096;64480;-82
2021/04/30 08:19:31;;;;;;;9.60;8.60;;;;;;;17.06;59.51;98338.55;124897;1095;64371;-82
2021/04/30 08:21:58;;;;;;;10.47;8.57;;;;;;;17.22;58.55;98340.48;124919;1101;64383;-81
2021/04/30 08:24:25;;;;;;;9.93;9.03;;;;;;;17.23;58.25;98334.95;124916;1096;64318;-80
2021/04/30 08:26:51;;;;;;;11.60;9.30;;;;;;;17.19;58.74;98336.27;124844;1101;64333;-81
2021/04/30 08:29:18;;;;;;;9.53;8.50;;;;;;;17.11;59.48;98347.87;124738;1096;64378;-81
2021/04/30 08:31:45;;;;;;;9.80;8.90;;;;;;;17.13;58.73;98346.85;124882;1101;64362;-82
2021/04/30 08:34:12;;;;;;;9.80;8.90;;;;;;;17.30;59.99;98346.78;124820;1101;64365;-81
2021/04/30 08:36:39;;;;;;;10.30;9.33;;;;;;;17.51;58.29;98348.22;124851;1101;64336;-81
2021/04/30 08:39:06;;;;;;;10.17;9.17;;;;;;;17.65;58.54;98349.44;124855;1096;64326;-83
2021/04/30 08:41:36;;;;;;;12.30;10.37;;;;;;;17.81;58.65;98356.75;124857;1096;64483;-81
2021/04/30 08:44:05;;;;;;;9.93;8.83;;;;;;;18.05;58.69;98342.48;124802;1097;64275;-81
2021/04/30 08:46:32;;;;;;;10.47;9.40;;;;;;;18.08;57.09;98348.38;124894;1096;64236;-80
2021/04/30 08:49:10;;;;;;;9.87;8.97;;;;;;;18.30;56.78;98348.73;124826;1101;64247;-82
2021/04/30 08:51:39;;;;;;;9.30;8.33;;;;;;;18.34;55.56;98345.53;124864;1101;64355;-81
2021/04/30 08:54:07;;;;;;;7.80;7.10;;;;;;;18.14;55.01;98353.13;124936;1097;64307;-83
2021/04/30 08:56:36;;;;;;;7.30;6.70;;;;;;;18.11;55.84;98342.64;125178;1101;64422;-79
2021/04/30 08:59:05;;;;;;;6.53;5.95;;;;;;;18.28;54.38;98342.69;125056;1097;64330;-81
2021/04/30 09:01:32;;;;;;;7.07;6.00;;;;;;;18.46;55.83;98335.27;125429;1096;64339;-80
2021/04/30 09:03:59;;;;;;;8.20;6.10;;;;;;;18.76;55.85;98341.00;125164;1096;64306;-82
2021/04/30 09:07:12;;;;;;;8.53;5.97;;;;;;;18.85;55.42;98335.43;126495;1101;64368;-90
2021/04/30 09:09:55;;;;;;;8.80;5.67;;;;;;;19.01;54.54;98342.66;125269;1101;64876;-91
2021/04/30 09:12:23;;;;;;;7.33;5.23;;;;;;;19.10;53.98;98351.56;125333;1096;64333;-91
2021/04/30 09:14:51;;;;;;;7.33;4.77;;;;;;;19.15;51.99;98348.36;125319;1101;64250;-92
2021/04/30 09:17:20;;;;;;;5.47;4.13;;;;;;;19.16;52.14;98350.03;125276;1101;64253;-89
2021/04/30 09:19:51;;;;;;;4.95;4.45;;;;;;;19.25;51.56;98352.55;124782;1097;64329;-82
2021/04/30 09:22:21;;;;;;;7.40;5.50;;;;;;;19.38;51.44;98346.59;124894;1097;64314;-81
2021/04/30 09:24:56;;;;;;;6.23;5.63;;;;;;;19.44;51.45;98345.05;124964;1097;64263;-80
2021/04/30 09:27:30;;;;;;;6.15;5.45;;;;;;;19.53;51.93;98342.11;124908;1096;64323;-82
2021/04/30 09:30:13;;;;;;;5.70;5.10;;;;;;;19.70;48.95;98344.80;124882;1096;64307;-82
2021/04/30 09:32:59;;;;;;;5.43;4.90;;;;;;;19.66;48.77;98344.28;124957;1101;64456;-82
2021/04/30 09:35:27;;;;;;;6.23;5.63;;;;;;;19.56;49.49;98334.67;124856;1096;64402;-81
2021/04/30 09:37:55;;;;;;;6.60;5.87;;;;;;;19.36;48.97;98340.52;124808;1101;64331;-81
2021/04/30 09:40:31;;;;;;;8.80;6.37;;;;;;;18.90;47.55;98342.99;124939;1101;64326;-83
2021/04/30 09:43:04;;;;;;;5.63;5.00;;;;;;;18.48;46.93;98351.27;124989;1097;64306;-84
2021/04/30 09:45:32;;;;;;;4.93;4.20;;;;;;;18.19;46.03;98350.77;124892;1101;64307;-83
2021/04/30 09:48:04;;;;;;;6.07;4.57;;;;;;;18.11;47.71;98361.52;124897;1095;64330;-82
2021/04/30 09:50:32;;;;;;;5.43;4.90;;;;;;;18.03;48.58;98368.77;124890;1101;64250;-82
2021/04/30 09:53:05;;;;;;;5.17;4.67;;;;;;;17.88;46.99;98363.19;124923;1101;64241;-82
2021/04/30 09:55:46;;;;;;;5.67;4.43;;;;;;;17.74;48.48;98367.30;125259;1101;64415;-82
2021/04/30 09:58:15;;;;;;;5.43;3.77;;;;;;;18.01;49.34;98366.25;125011;1097;64412;-81
2021/04/30 10:00:45;;;;;;;4.53;3.67;;;;;;;18.26;47.35;98358.19;124981;1101;64345;-82
2021/04/30 10:03:14;;;;;;;7.20;4.30;;;;;;;18.44;48.61;98361.57;125026;1096;64339;-82
2021/04/30 10:06:10;;;;;;;4.93;3.73;;;;;;;18.46;46.54;98355.98;124919;1095;64320;-81
2021/04/30 10:08:37;;;;;;;4.40;4.00;;;;;;;18.20;46.51;98351.61;124997;1097;64323;-82
2021/04/30 10:11:04;;;;;;;5.70;4.30;;;;;;;18.17;47.13;98351.95;124991;1101;64515;-81
2021/04/30 10:13:31;;;;;;;5.53;4.13;;;;;;;18.28;47.23;98357.01;124823;1101;64393;-82
2021/04/30 10:15:58;;;;;;;4.40;4.10;;;;;;;18.28;46.14;98348.08;124962;1095;64425;-84
2021/04/30 10:18:26;;;;;;;16.90;5.70;;;;;;;18.32;47.05;98347.55;125084;1101;64361;-82
2021/04/30 10:20:53;;;;;;;17.57;6.50;;;;;;;18.49;47.90;98350.28;124980;1096;64312;-84
2021/04/30 10:23:22;;;;;;;7.67;4.77;;;;;;;18.58;46.80;98349.25;124977;1101;64425;-83
2021/04/30 10:25:51;;;;;;;4.90;4.40;;;;;;;18.65;47.47;98356.50;125083;1096;64250;-84
2021/04/30 10:28:27;;;;;;;6.15;4.00;;;;;;;18.67;47.35;98356.34;124895;1101;64306;-83
2021/04/30 10:30:56;;;;;;;4.43;3.63;;;;;;;18.69;45.89;98353.45;124943;1101;64368;-80
2021/04/30 10:33:38;;;;;;;6.08;4.23;;;;;;;18.61;46.13;98359.70;124767;1097;64333;-80
2021/04/30 10:36:18;;;;;;;9.87;5.63;;;;;;;18.74;47.02;98353.79;124815;1101;63200;-81
2021/04/30 10:38:50;;;;;;;4.37;3.63;;;;;;;18.94;46.69;98348.91;124857;1095;64786;-81
2021/04/30 10:41:49;;;;;;;4.70;4.30;;;;;;;19.06;46.71;98345.68;124867;1096;64338;-82
2021/04/30 10:44:31;;;;;;;5.30;4.80;;;;;;;18.99;45.87;98343.84;124799;1101;64400;-82
2021/04/30 10:47:16;;;;;;;4.67;4.20;;;;;;;18.97;46.16;98346.70;124844;1101;64349;-80
2021/04/30 10:50:05;;;;;;;8.70;4.70;;;;;;;18.98;46.39;98339.44;124887;1101;64316;-82
2021/04/30 10:52:32;;;;;;;6.10;4.80;;;;;;;19.12;46.13;98341.44;124878;1101;64256;-81
2021/04/30 10:55:04;;;;;;;4.70;4.30;;;;;;;19.19;46.37;98342.41;124837;1096;64326;-81
2021/04/30 10:57:59;;;;;;;4.80;4.40;;;;;;;19.20;45.56;98330.61;124978;1095;64399;-80
2021/04/30 11:00:41;;;;;;;5.37;4.43;;;;;;;19.26;45.35;98337.17;124888;1096;64334;-80
2021/04/30 11:03:24;;;;;;;5.20;4.53;;;;;;;19.30;44.76;98339.36;124814;1101;64451;-80
2021/04/30 11:06:00;;;;;;;6.33;4.70;;;;;;;19.02;42.56;98348.89;124833;1097;64377;-80
2021/04/30 11:08:54;;;;;;;6.33;5.57;;;;;;;18.78;43.15;98339.82;124783;1101;64393;-81
2021/04/30 11:11:32;;;;;;;7.65;5.95;;;;;;;18.82;44.51;98335.75;124832;1101;64335;-81
2021/04/30 11:14:17;;;;;;;5.40;4.50;;;;;;;18.81;42.04;98322.44;124828;1101;64262;-81
2021/04/30 11:16:46;;;;;;;4.70;4.20;;;;;;;18.90;43.88;98334.05;124840;1095;64256;-81
2021/04/30 11:19:13;;;;;;;5.10;4.60;;;;;;;18.86;42.30;98333.56;124815;1101;64502;-80
2021/04/30 11:21:49;;;;;;;6.70;5.33;;;;;;;18.69;43.40;98335.39;124736;1101;64349;-81
2021/04/30 11:24:28;;;;;;;5.00;4.50;;;;;;;18.72;42.67;98336.91;124886;1101;64323;-81
2021/04/30 11:27:20;;;;;;;6.30;4.63;;;;;;;18.81;42.32;98328.67;124841;1101;64336;-81